sensor_id;sensor_type;location;lat;lon;timestamp;P1;durP1;ratioP1;P2;durP2;ratioP2
77016;SDS011;65949;53.132;17.930;2023-04-01T00:02:23;30.90;;;15.60;;
77016;SDS011;65949;53.132;17.930;2023-04-01T00:04:49;33.30;;;16.40;;
77016;SDS011;65949;53.132;17.930;2023-04-01T00:07:16;33.40;;;17.60;;
77016;SDS011;65949;53.132;17.930;2023-04-01T00:09:43;35.10;;;19.00;;
77016;SDS011;65949;53.132;17.930;2023-04-01T00:12:09;41.80;;;20.90;;
77016;SDS011;65949;53.132;17.930;2023-04-01T00:14:36;40.20;;;21.70;;
77016;SDS011;65949;53.132;17.930;2023-04-01T00:17:03;35.90;;;18.80;;
77016;SDS011;65949;53.132;17.930;2023-04-01T00:19:30;34.60;;;17.50;;
77016;SDS011;65949;53.132;17.930;2023-04-01T00:21:58;36.70;;;17.50;;
77016;SDS011;65949;53.132;17.930;2023-04-01T00:24:25;38.50;;;19.20;;
77016;SDS011;65949;53.132;17.930;2023-04-01T00:26:51;37.60;;;18.50;;
77016;SDS011;65949;53.132;17.930;2023-04-01T00:29:18;33.40;;;17.50;;
77016;SDS011;65949;53.132;17.930;2023-04-01T00:31:45;30.20;;;15.80;;
77016;SDS011;65949;53.132;17.930;2023-04-01T00:34:12;30.00;;;15.90;;
77016;SDS011;65949;53.132;17.930;2023-04-01T00:36:38;31.70;;;15.70;;
77016;SDS011;65949;53.132;17.930;2023-04-01T00:39:05;28.80;;;14.70;;
77016;SDS011;65949;53.132;17.930;2023-04-01T00:41:32;28.60;;;14.10;;
77016;SDS011;65949;53.132;17.930;2023-04-01T00:44:21;31.00;;;16.20;;
77016;SDS011;65949;53.132;17.930;2023-04-01T00:46:53;31.50;;;15.50;;
77016;SDS011;65949;53.132;17.930;2023-04-01T00:49:22;27.80;;;14.40;;
77016;SDS011;65949;53.132;17.930;2023-04-01T00:51:52;32.10;;;15.20;;
77016;SDS011;65949;53.132;17.930;2023-04-01T00:54:21;29.60;;;14.40;;
77016;SDS011;65949;53.132;17.930;2023-04-01T00:56:51;29.20;;;15.30;;
77016;SDS011;65949;53.132;17.930;2023-04-01T00:59:23;32.30;;;15.80;;
77016;SDS011;65949;53.132;17.930;2023-04-01T01:01:52;28.10;;;14.60;;
77016;SDS011;65949;53.132;17.930;2023-04-01T01:12:20;29.20;;;15.10;;
77016;SDS011;65949;53.132;17.930;2023-04-01T01:34:06;26.90;;;13.00;;
77016;SDS011;65949;53.132;17.930;2023-04-01T01:36:50;24.40;;;13.00;;
77016;SDS011;65949;53.132;17.930;2023-04-01T01:39:23;26.00;;;13.60;;
77016;SDS011;65949;53.132;17.930;2023-04-01T01:42:00;25.40;;;13.60;;
77016;SDS011;65949;53.132;17.930;2023-04-01T01:44:31;24.10;;;12.00;;
77016;SDS011;65949;53.132;17.930;2023-04-01T01:47:00;26.30;;;13.00;;
77016;SDS011;65949;53.132;17.930;2023-04-01T01:49:27;22.50;;;10.70;;
77016;SDS011;65949;53.132;17.930;2023-04-01T01:51:58;25.40;;;12.60;;
77016;SDS011;65949;53.132;17.930;2023-04-01T01:54:25;21.70;;;11.80;;
77016;SDS011;65949;53.132;17.930;2023-04-01T01:56:55;24.70;;;12.50;;
77016;SDS011;65949;53.132;17.930;2023-04-01T01:59:33;23.70;;;12.90;;
77016;SDS011;65949;53.132;17.930;2023-04-01T02:02:03;25.60;;;13.40;;
77016;SDS011;65949;53.132;17.930;2023-04-01T02:04:35;27.30;;;14.50;;
77016;SDS011;65949;53.132;17.930;2023-04-01T02:07:07;23.70;;;12.60;;
77016;SDS011;65949;53.132;17.930;2023-04-01T02:09:38;23.60;;;13.10;;
77016;SDS011;65949;53.132;17.930;2023-04-01T02:12:07;22.50;;;11.90;;
77016;SDS011;65949;53.132;17.930;2023-04-01T02:14:41;20.30;;;10.10;;
77016;SDS011;65949;53.132;17.930;2023-04-01T02:17:17;31.50;;;14.30;;
77016;SDS011;65949;53.132;17.930;2023-04-01T02:19:47;31.60;;;14.80;;
77016;SDS011;65949;53.132;17.930;2023-04-01T02:22:34;29.70;;;14.60;;
77016;SDS011;65949;53.132;17.930;2023-04-01T02:25:09;20.60;;;11.20;;
77016;SDS011;65949;53.132;17.930;2023-04-01T02:27:39;18.40;;;9.20;;
77016;SDS011;65949;53.132;17.930;2023-04-01T02:30:08;16.50;;;9.30;;
77016;SDS011;65949;53.132;17.930;2023-04-01T02:32:35;19.20;;;10.10;;
77016;SDS011;65949;53.132;17.930;2023-04-01T02:35:05;15.80;;;8.90;;
77016;SDS011;65949;53.132;17.930;2023-04-01T02:37:37;14.20;;;8.00;;
77016;SDS011;65949;53.132;17.930;2023-04-01T02:40:05;15.50;;;8.90;;
77016;SDS011;65949;53.132;17.930;2023-04-01T02:42:34;13.20;;;7.80;;
77016;SDS011;65949;53.132;17.930;2023-04-01T02:45:01;13.70;;;6.80;;
77016;SDS011;65949;53.132;17.930;2023-04-01T02:47:28;13.90;;;6.60;;
77016;SDS011;65949;53.132;17.930;2023-04-01T02:49:55;11.80;;;6.30;;
77016;SDS011;65949;53.132;17.930;2023-04-01T02:52:25;10.90;;;6.20;;
77016;SDS011;65949;53.132;17.930;2023-04-01T02:54:53;12.40;;;7.00;;
77016;SDS011;65949;53.132;17.930;2023-04-01T02:57:20;11.00;;;5.50;;
77016;SDS011;65949;53.132;17.930;2023-04-01T02:59:47;9.40;;;4.80;;
77016;SDS011;65949;53.132;17.930;2023-04-01T03:02:14;12.00;;;5.80;;
77016;SDS011;65949;53.132;17.930;2023-04-01T03:04:41;12.30;;;7.00;;
77016;SDS011;65949;53.132;17.930;2023-04-01T03:07:09;13.80;;;7.70;;
77016;SDS011;65949;53.132;17.930;2023-04-01T03:09:37;11.20;;;6.00;;
77016;SDS011;65949;53.132;17.930;2023-04-01T03:12:05;16.20;;;7.70;;
77016;SDS011;65949;53.132;17.930;2023-04-01T03:14:33;13.10;;;6.80;;
77016;SDS011;65949;53.132;17.930;2023-04-01T03:16:59;15.80;;;8.50;;
77016;SDS011;65949;53.132;17.930;2023-04-01T03:19:26;15.50;;;8.30;;
77016;SDS011;65949;53.132;17.930;2023-04-01T03:21:53;11.50;;;5.60;;
77016;SDS011;65949;53.132;17.930;2023-04-01T03:24:20;11.70;;;6.10;;
77016;SDS011;65949;53.132;17.930;2023-04-01T03:26:47;9.50;;;4.70;;
77016;SDS011;65949;53.132;17.930;2023-04-01T03:29:15;10.80;;;5.20;;
77016;SDS011;65949;53.132;17.930;2023-04-01T03:31:42;10.90;;;5.90;;
77016;SDS011;65949;53.132;17.930;2023-04-01T03:34:09;11.60;;;5.40;;
77016;SDS011;65949;53.132;17.930;2023-04-01T03:36:36;11.40;;;5.40;;
77016;SDS011;65949;53.132;17.930;2023-04-01T03:39:03;12.00;;;5.70;;
77016;SDS011;65949;53.132;17.930;2023-04-01T03:41:35;11.40;;;5.30;;
77016;SDS011;65949;53.132;17.930;2023-04-01T03:44:03;12.10;;;4.90;;
77016;SDS011;65949;53.132;17.930;2023-04-01T03:46:30;11.00;;;4.90;;
77016;SDS011;65949;53.132;17.930;2023-04-01T03:48:57;11.60;;;5.10;;
77016;SDS011;65949;53.132;17.930;2023-04-01T03:51:24;12.50;;;5.40;;
77016;SDS011;65949;53.132;17.930;2023-04-01T03:53:50;12.70;;;4.70;;
77016;SDS011;65949;53.132;17.930;2023-04-01T03:56:17;10.50;;;4.30;;
77016;SDS011;65949;53.132;17.930;2023-04-01T03:58:44;11.20;;;4.70;;
77016;SDS011;65949;53.132;17.930;2023-04-01T04:01:16;14.00;;;5.10;;
77016;SDS011;65949;53.132;17.930;2023-04-01T04:03:44;11.70;;;5.50;;
77016;SDS011;65949;53.132;17.930;2023-04-01T04:06:13;10.60;;;4.20;;
77016;SDS011;65949;53.132;17.930;2023-04-01T04:08:40;12.50;;;5.10;;
77016;SDS011;65949;53.132;17.930;2023-04-01T04:11:07;11.50;;;4.60;;
77016;SDS011;65949;53.132;17.930;2023-04-01T04:13:34;12.40;;;4.70;;
77016;SDS011;65949;53.132;17.930;2023-04-01T04:16:02;14.60;;;5.90;;
77016;SDS011;65949;53.132;17.930;2023-04-01T04:18:30;11.90;;;3.80;;
77016;SDS011;65949;53.132;17.930;2023-04-01T04:20:56;14.30;;;5.60;;
77016;SDS011;65949;53.132;17.930;2023-04-01T04:23:25;13.40;;;5.10;;
77016;SDS011;65949;53.132;17.930;2023-04-01T04:25:58;9.20;;;3.10;;
77016;SDS011;65949;53.132;17.930;2023-04-01T04:28:28;13.70;;;5.50;;
77016;SDS011;65949;53.132;17.930;2023-04-01T04:30:56;14.40;;;6.10;;
77016;SDS011;65949;53.132;17.930;2023-04-01T04:33:23;15.50;;;6.40;;
77016;SDS011;65949;53.132;17.930;2023-04-01T04:35:51;15.20;;;5.50;;
77016;SDS011;65949;53.132;17.930;2023-04-01T04:38:21;15.20;;;5.70;;
77016;SDS011;65949;53.132;17.930;2023-04-01T04:40:48;14.40;;;6.20;;
77016;SDS011;65949;53.132;17.930;2023-04-01T04:43:16;14.40;;;5.70;;
77016;SDS011;65949;53.132;17.930;2023-04-01T04:45:44;13.90;;;5.60;;
77016;SDS011;65949;53.132;17.930;2023-04-01T04:48:12;12.80;;;4.80;;
77016;SDS011;65949;53.132;17.930;2023-04-01T04:50:42;14.60;;;6.20;;
77016;SDS011;65949;53.132;17.930;2023-04-01T04:53:09;17.40;;;7.40;;
77016;SDS011;65949;53.132;17.930;2023-04-01T04:55:37;15.20;;;6.50;;
77016;SDS011;65949;53.132;17.930;2023-04-01T04:58:23;13.60;;;5.40;;
77016;SDS011;65949;53.132;17.930;2023-04-01T05:00:50;13.30;;;5.50;;
77016;SDS011;65949;53.132;17.930;2023-04-01T05:03:24;15.30;;;6.40;;
77016;SDS011;65949;53.132;17.930;2023-04-01T05:05:52;18.90;;;8.10;;
77016;SDS011;65949;53.132;17.930;2023-04-01T05:08:19;19.00;;;6.70;;
77016;SDS011;65949;53.132;17.930;2023-04-01T05:10:46;14.20;;;6.00;;
77016;SDS011;65949;53.132;17.930;2023-04-01T05:13:13;20.20;;;7.90;;
77016;SDS011;65949;53.132;17.930;2023-04-01T05:15:40;12.30;;;5.40;;
77016;SDS011;65949;53.132;17.930;2023-04-01T05:18:07;21.50;;;7.50;;
77016;SDS011;65949;53.132;17.930;2023-04-01T05:20:34;20.30;;;8.00;;
77016;SDS011;65949;53.132;17.930;2023-04-01T05:23:01;20.10;;;8.40;;
77016;SDS011;65949;53.132;17.930;2023-04-01T05:25:29;22.10;;;7.60;;
77016;SDS011;65949;53.132;17.930;2023-04-01T05:27:56;21.20;;;8.40;;
77016;SDS011;65949;53.132;17.930;2023-04-01T05:30:23;19.60;;;7.10;;
77016;SDS011;65949;53.132;17.930;2023-04-01T05:33:00;20.70;;;8.70;;
77016;SDS011;65949;53.132;17.930;2023-04-01T05:35:27;20.50;;;8.90;;
77016;SDS011;65949;53.132;17.930;2023-04-01T05:37:54;20.40;;;8.40;;
77016;SDS011;65949;53.132;17.930;2023-04-01T05:40:21;17.30;;;6.50;;
77016;SDS011;65949;53.132;17.930;2023-04-01T05:42:47;19.70;;;8.30;;
77016;SDS011;65949;53.132;17.930;2023-04-01T05:45:14;17.60;;;7.30;;
77016;SDS011;65949;53.132;17.930;2023-04-01T05:48:04;17.90;;;7.20;;
77016;SDS011;65949;53.132;17.930;2023-04-01T05:50:36;19.40;;;7.20;;
77016;SDS011;65949;53.132;17.930;2023-04-01T05:53:02;23.90;;;9.70;;
77016;SDS011;65949;53.132;17.930;2023-04-01T05:55:29;22.40;;;8.90;;
77016;SDS011;65949;53.132;17.930;2023-04-01T05:57:56;23.10;;;9.40;;
77016;SDS011;65949;53.132;17.930;2023-04-01T06:00:22;27.40;;;11.20;;
77016;SDS011;65949;53.132;17.930;2023-04-01T06:02:50;23.40;;;10.00;;
77016;SDS011;65949;53.132;17.930;2023-04-01T06:05:19;21.90;;;7.90;;
77016;SDS011;65949;53.132;17.930;2023-04-01T06:07:50;18.60;;;7.30;;
77016;SDS011;65949;53.132;17.930;2023-04-01T06:10:21;24.40;;;10.00;;
77016;SDS011;65949;53.132;17.930;2023-04-01T06:13:47;13.80;;;5.90;;
77016;SDS011;65949;53.132;17.930;2023-04-01T06:26:57;18.40;;;9.00;;
77016;SDS011;65949;53.132;17.930;2023-04-01T06:29:50;14.00;;;6.70;;
77016;SDS011;65949;53.132;17.930;2023-04-01T06:39:51;17.10;;;7.20;;
77016;SDS011;65949;53.132;17.930;2023-04-01T06:42:33;16.00;;;7.60;;
77016;SDS011;65949;53.132;17.930;2023-04-01T06:45:36;15.20;;;7.50;;
77016;SDS011;65949;53.132;17.930;2023-04-01T06:48:49;14.10;;;5.40;;
77016;SDS011;65949;53.132;17.930;2023-04-01T06:55:38;9.30;;;4.00;;
77016;SDS011;65949;53.132;17.930;2023-04-01T06:58:23;14.00;;;7.20;;
77016;SDS011;65949;53.132;17.930;2023-04-01T07:00:54;14.10;;;6.60;;
77016;SDS011;65949;53.132;17.930;2023-04-01T07:03:32;9.40;;;4.20;;
77016;SDS011;65949;53.132;17.930;2023-04-01T07:06:05;13.40;;;6.00;;
77016;SDS011;65949;53.132;17.930;2023-04-01T07:08:39;14.20;;;5.80;;
77016;SDS011;65949;53.132;17.930;2023-04-01T07:11:10;12.10;;;6.70;;
77016;SDS011;65949;53.132;17.930;2023-04-01T07:17:25;15.00;;;8.00;;
77016;SDS011;65949;53.132;17.930;2023-04-01T07:19:52;18.00;;;9.80;;
77016;SDS011;65949;53.132;17.930;2023-04-01T07:25:15;15.80;;;7.10;;
77016;SDS011;65949;53.132;17.930;2023-04-01T07:28:35;17.50;;;8.10;;
77016;SDS011;65949;53.132;17.930;2023-04-01T07:33:44;17.80;;;8.50;;
77016;SDS011;65949;53.132;17.930;2023-04-01T07:36:33;15.20;;;8.00;;
77016;SDS011;65949;53.132;17.930;2023-04-01T07:39:07;22.00;;;11.70;;
77016;SDS011;65949;53.132;17.930;2023-04-01T07:42:21;30.30;;;14.10;;
77016;SDS011;65949;53.132;17.930;2023-04-01T07:44:59;24.60;;;11.60;;
77016;SDS011;65949;53.132;17.930;2023-04-01T07:50:18;59.90;;;32.40;;
77016;SDS011;65949;53.132;17.930;2023-04-01T07:55:44;11.60;;;5.20;;
77016;SDS011;65949;53.132;17.930;2023-04-01T08:16:20;12.00;;;5.70;;
77016;SDS011;65949;53.132;17.930;2023-04-01T08:19:00;11.80;;;6.00;;
77016;SDS011;65949;53.132;17.930;2023-04-01T08:21:43;9.90;;;4.50;;
77016;SDS011;65949;53.132;17.930;2023-04-01T08:24:59;9.40;;;4.30;;
77016;SDS011;65949;53.132;17.930;2023-04-01T08:27:12;9.20;;;3.80;;
77016;SDS011;65949;53.132;17.930;2023-04-01T08:32:47;11.60;;;5.70;;
77016;SDS011;65949;53.132;17.930;2023-04-01T08:35:34;13.30;;;5.20;;
77016;SDS011;65949;53.132;17.930;2023-04-01T08:38:11;9.50;;;4.70;;
77016;SDS011;65949;53.132;17.930;2023-04-01T08:55:14;8.50;;;3.20;;
77016;SDS011;65949;53.132;17.930;2023-04-01T09:23:43;10.10;;;3.40;;
77016;SDS011;65949;53.132;17.930;2023-04-01T09:32:10;6.30;;;1.90;;
77016;SDS011;65949;53.132;17.930;2023-04-01T09:37:53;4.90;;;1.40;;
77016;SDS011;65949;53.132;17.930;2023-04-01T09:51:40;7.20;;;1.60;;
77016;SDS011;65949;53.132;17.930;2023-04-01T09:54:33;5.20;;;1.50;;
77016;SDS011;65949;53.132;17.930;2023-04-01T10:22:40;5.80;;;2.20;;
77016;SDS011;65949;53.132;17.930;2023-04-01T11:01:52;6.50;;;2.70;;
77016;SDS011;65949;53.132;17.930;2023-04-01T11:33:36;53.80;;;19.30;;
77016;SDS011;65949;53.132;17.930;2023-04-01T11:39:39;330.00;;;101.30;;
77016;SDS011;65949;53.132;17.930;2023-04-01T11:43:06;295.10;;;83.40;;
77016;SDS011;65949;53.132;17.930;2023-04-01T11:46:33;122.30;;;38.80;;
77016;SDS011;65949;53.132;17.930;2023-04-01T11:49:06;234.30;;;90.00;;
77016;SDS011;65949;53.132;17.930;2023-04-01T11:54:54;10.70;;;4.30;;
77016;SDS011;65949;53.132;17.930;2023-04-01T12:08:19;10.20;;;5.70;;
77016;SDS011;65949;53.132;17.930;2023-04-01T12:13:59;26.20;;;8.60;;
77016;SDS011;65949;53.132;17.930;2023-04-01T12:19:31;218.20;;;65.20;;
77016;SDS011;65949;53.132;17.930;2023-04-01T12:34:20;83.70;;;29.00;;
77016;SDS011;65949;53.132;17.930;2023-04-01T12:42:46;5.30;;;2.00;;
77016;SDS011;65949;53.132;17.930;2023-04-01T12:45:39;5.70;;;1.70;;
77016;SDS011;65949;53.132;17.930;2023-04-01T13:10:50;12.60;;;4.30;;
77016;SDS011;65949;53.132;17.930;2023-04-01T13:13:28;7.30;;;3.40;;
77016;SDS011;65949;53.132;17.930;2023-04-01T13:19:08;7.50;;;3.70;;
77016;SDS011;65949;53.132;17.930;2023-04-01T13:29:55;8.90;;;3.60;;
77016;SDS011;65949;53.132;17.930;2023-04-01T13:35:46;8.20;;;3.50;;
77016;SDS011;65949;53.132;17.930;2023-04-01T13:38:45;5.30;;;1.80;;
77016;SDS011;65949;53.132;17.930;2023-04-01T13:44:35;7.40;;;3.00;;
77016;SDS011;65949;53.132;17.930;2023-04-01T13:47:23;5.80;;;2.10;;
77016;SDS011;65949;53.132;17.930;2023-04-01T14:17:31;9.50;;;4.00;;
77016;SDS011;65949;53.132;17.930;2023-04-01T14:20:34;17.20;;;9.20;;
77016;SDS011;65949;53.132;17.930;2023-04-01T14:23:25;8.30;;;3.00;;
77016;SDS011;65949;53.132;17.930;2023-04-01T14:37:37;11.10;;;4.80;;
77016;SDS011;65949;53.132;17.930;2023-04-01T14:40:16;9.50;;;3.30;;
77016;SDS011;65949;53.132;17.930;2023-04-01T14:45:46;12.60;;;5.00;;
77016;SDS011;65949;53.132;17.930;2023-04-01T14:48:37;8.00;;;3.50;;
77016;SDS011;65949;53.132;17.930;2023-04-01T14:54:48;8.50;;;4.10;;
77016;SDS011;65949;53.132;17.930;2023-04-01T14:57:10;8.30;;;3.60;;
77016;SDS011;65949;53.132;17.930;2023-04-01T14:59:46;9.30;;;4.40;;
77016;SDS011;65949;53.132;17.930;2023-04-01T15:05:32;5.90;;;2.30;;
77016;SDS011;65949;53.132;17.930;2023-04-01T15:08:23;7.20;;;2.50;;
77016;SDS011;65949;53.132;17.930;2023-04-01T15:33:33;11.60;;;4.80;;
77016;SDS011;65949;53.132;17.930;2023-04-01T15:39:03;9.90;;;3.20;;
77016;SDS011;65949;53.132;17.930;2023-04-01T15:41:37;9.60;;;3.10;;
77016;SDS011;65949;53.132;17.930;2023-04-01T15:49:59;9.90;;;3.50;;
77016;SDS011;65949;53.132;17.930;2023-04-01T15:55:19;21.30;;;8.10;;
77016;SDS011;65949;53.132;17.930;2023-04-01T16:00:53;11.90;;;4.40;;
77016;SDS011;65949;53.132;17.930;2023-04-01T16:03:43;9.10;;;3.40;;
77016;SDS011;65949;53.132;17.930;2023-04-01T16:08:53;6.70;;;2.60;;
77016;SDS011;65949;53.132;17.930;2023-04-01T16:17:09;6.90;;;2.70;;
77016;SDS011;65949;53.132;17.930;2023-04-01T16:19:49;7.80;;;3.30;;
77016;SDS011;65949;53.132;17.930;2023-04-01T16:22:32;8.10;;;2.30;;
77016;SDS011;65949;53.132;17.930;2023-04-01T16:37:00;8.30;;;2.80;;
77016;SDS011;65949;53.132;17.930;2023-04-01T16:39:36;7.30;;;2.50;;
77016;SDS011;65949;53.132;17.930;2023-04-01T16:45:15;7.10;;;2.40;;
77016;SDS011;65949;53.132;17.930;2023-04-01T16:47:50;6.50;;;2.50;;
77016;SDS011;65949;53.132;17.930;2023-04-01T16:50:23;6.70;;;2.60;;
77016;SDS011;65949;53.132;17.930;2023-04-01T16:58:23;8.20;;;3.00;;
77016;SDS011;65949;53.132;17.930;2023-04-01T17:00:58;5.50;;;1.40;;
77016;SDS011;65949;53.132;17.930;2023-04-01T17:03:36;5.00;;;1.40;;
77016;SDS011;65949;53.132;17.930;2023-04-01T17:22:55;9.10;;;2.50;;
77016;SDS011;65949;53.132;17.930;2023-04-01T17:25:37;7.90;;;3.40;;
77016;SDS011;65949;53.132;17.930;2023-04-01T17:34:24;9.20;;;2.40;;
77016;SDS011;65949;53.132;17.930;2023-04-01T17:37:01;4.90;;;1.10;;
77016;SDS011;65949;53.132;17.930;2023-04-01T17:46:02;3.20;;;0.80;;
77016;SDS011;65949;53.132;17.930;2023-04-01T17:51:29;4.90;;;1.50;;
77016;SDS011;65949;53.132;17.930;2023-04-01T17:54:12;4.40;;;1.00;;
77016;SDS011;65949;53.132;17.930;2023-04-01T17:56:58;4.50;;;1.30;;
77016;SDS011;65949;53.132;17.930;2023-04-01T17:59:49;6.30;;;2.10;;
77016;SDS011;65949;53.132;17.930;2023-04-01T18:05:30;4.10;;;0.80;;
77016;SDS011;65949;53.132;17.930;2023-04-01T18:18:48;4.80;;;1.10;;
77016;SDS011;65949;53.132;17.930;2023-04-01T18:21:43;6.70;;;2.10;;
77016;SDS011;65949;53.132;17.930;2023-04-01T18:30:11;5.00;;;1.60;;
77016;SDS011;65949;53.132;17.930;2023-04-01T18:38:30;6.70;;;2.40;;
77016;SDS011;65949;53.132;17.930;2023-04-01T18:46:54;9.20;;;2.00;;
77016;SDS011;65949;53.132;17.930;2023-04-01T18:52:13;9.90;;;3.20;;
77016;SDS011;65949;53.132;17.930;2023-04-01T18:55:15;6.80;;;2.20;;
77016;SDS011;65949;53.132;17.930;2023-04-01T19:00:26;8.00;;;2.60;;
77016;SDS011;65949;53.132;17.930;2023-04-01T19:03:05;10.60;;;3.60;;
77016;SDS011;65949;53.132;17.930;2023-04-01T19:05:38;14.00;;;4.80;;
77016;SDS011;65949;53.132;17.930;2023-04-01T19:19:46;10.60;;;3.70;;
77016;SDS011;65949;53.132;17.930;2023-04-01T19:33:38;7.80;;;3.10;;
77016;SDS011;65949;53.132;17.930;2023-04-01T19:36:22;9.70;;;3.80;;
77016;SDS011;65949;53.132;17.930;2023-04-01T19:39:04;11.10;;;3.90;;
77016;SDS011;65949;53.132;17.930;2023-04-01T19:44:39;9.80;;;3.70;;
77016;SDS011;65949;53.132;17.930;2023-04-01T19:53:05;8.30;;;2.60;;
77016;SDS011;65949;53.132;17.930;2023-04-01T19:55:43;8.40;;;2.80;;
77016;SDS011;65949;53.132;17.930;2023-04-01T19:58:32;6.10;;;2.00;;
77016;SDS011;65949;53.132;17.930;2023-04-01T20:01:08;6.40;;;1.90;;
77016;SDS011;65949;53.132;17.930;2023-04-01T20:03:57;8.50;;;2.50;;
77016;SDS011;65949;53.132;17.930;2023-04-01T20:06:33;10.80;;;2.70;;
77016;SDS011;65949;53.132;17.930;2023-04-01T20:12:27;8.80;;;3.10;;
77016;SDS011;65949;53.132;17.930;2023-04-01T20:14:57;9.00;;;3.30;;
77016;SDS011;65949;53.132;17.930;2023-04-01T20:17:59;10.40;;;3.50;;
77016;SDS011;65949;53.132;17.930;2023-04-01T20:20:20;9.50;;;3.60;;
77016;SDS011;65949;53.132;17.930;2023-04-01T20:22:56;8.70;;;3.40;;
77016;SDS011;65949;53.132;17.930;2023-04-01T20:27:58;9.10;;;3.50;;
77016;SDS011;65949;53.132;17.930;2023-04-01T20:44:26;8.50;;;2.70;;
77016;SDS011;65949;53.132;17.930;2023-04-01T20:50:29;8.50;;;3.00;;
77016;SDS011;65949;53.132;17.930;2023-04-01T20:53:20;8.40;;;2.40;;
77016;SDS011;65949;53.132;17.930;2023-04-01T20:56:02;8.50;;;2.30;;
77016;SDS011;65949;53.132;17.930;2023-04-01T20:59:03;8.20;;;2.30;;
77016;SDS011;65949;53.132;17.930;2023-04-01T21:02:01;8.50;;;2.80;;
77016;SDS011;65949;53.132;17.930;2023-04-01T21:11:01;11.70;;;3.60;;
77016;SDS011;65949;53.132;17.930;2023-04-01T21:13:36;11.60;;;3.60;;
77016;SDS011;65949;53.132;17.930;2023-04-01T21:16:41;7.10;;;2.80;;
77016;SDS011;65949;53.132;17.930;2023-04-01T21:19:30;6.00;;;2.00;;
77016;SDS011;65949;53.132;17.930;2023-04-01T21:28:12;7.80;;;2.40;;
77016;SDS011;65949;53.132;17.930;2023-04-01T21:42:03;7.80;;;2.40;;
77016;SDS011;65949;53.132;17.930;2023-04-01T21:50:42;8.60;;;2.70;;
77016;SDS011;65949;53.132;17.930;2023-04-01T21:53:31;10.20;;;3.50;;
77016;SDS011;65949;53.132;17.930;2023-04-01T22:04:35;6.30;;;2.10;;
77016;SDS011;65949;53.132;17.930;2023-04-01T22:09:44;8.00;;;2.50;;
77016;SDS011;65949;53.132;17.930;2023-04-01T22:12:17;10.40;;;3.40;;
77016;SDS011;65949;53.132;17.930;2023-04-01T22:14:52;7.00;;;2.80;;
77016;SDS011;65949;53.132;17.930;2023-04-01T22:17:26;10.00;;;3.10;;
77016;SDS011;65949;53.132;17.930;2023-04-01T22:23:20;11.70;;;3.80;;
77016;SDS011;65949;53.132;17.930;2023-04-01T22:25:47;9.00;;;3.20;;
77016;SDS011;65949;53.132;17.930;2023-04-01T22:28:29;8.50;;;2.60;;
77016;SDS011;65949;53.132;17.930;2023-04-01T22:31:04;4.90;;;1.60;;
77016;SDS011;65949;53.132;17.930;2023-04-01T22:45:10;9.00;;;3.20;;
77016;SDS011;65949;53.132;17.930;2023-04-01T22:50:33;9.60;;;4.00;;
77016;SDS011;65949;53.132;17.930;2023-04-01T22:56:11;8.60;;;3.10;;
77016;SDS011;65949;53.132;17.930;2023-04-01T22:58:47;6.50;;;2.20;;
77016;SDS011;65949;53.132;17.930;2023-04-01T23:01:22;7.50;;;2.50;;
77016;SDS011;65949;53.132;17.930;2023-04-01T23:03:55;6.00;;;1.80;;
77016;SDS011;65949;53.132;17.930;2023-04-01T23:06:31;10.30;;;3.40;;
77016;SDS011;65949;53.132;17.930;2023-04-01T23:09:09;11.20;;;3.80;;
77016;SDS011;65949;53.132;17.930;2023-04-01T23:11:55;11.10;;;3.90;;
77016;SDS011;65949;53.132;17.930;2023-04-01T23:14:33;9.50;;;3.80;;
77016;SDS011;65949;53.132;17.930;2023-04-01T23:34:24;9.30;;;2.60;;
77016;SDS011;65949;53.132;17.930;2023-04-01T23:36:56;8.60;;;2.90;;
77016;SDS011;65949;53.132;17.930;2023-04-01T23:39:31;6.90;;;2.40;;
77016;SDS011;65949;53.132;17.930;2023-04-01T23:42:00;8.50;;;3.00;;
77016;SDS011;65949;53.132;17.930;2023-04-01T23:44:48;8.70;;;3.30;;
77016;SDS011;65949;53.132;17.930;2023-04-01T23:47:18;9.80;;;3.20;;
77016;SDS011;65949;53.132;17.930;2023-04-01T23:49:58;9.40;;;2.90;;
77016;SDS011;65949;53.132;17.930;2023-04-01T23:52:29;6.90;;;2.50;;
77016;SDS011;65949;53.132;17.930;2023-04-01T23:55:03;8.70;;;3.30;;
77016;SDS011;65949;53.132;17.930;2023-04-01T23:57:39;8.40;;;2.80;;
